Bangkok, Thailand

8:38 AM ICT on February 22, 2017 (GMT +0700)
Bangkok | | Change Station

Elev 0 ft 13.91 °N, 100.66 °E | Updated 2 minutes ago

Partly Cloudy
Partly Cloudy
83.5 °F
Feels Like 92 °F
N
0.7
Wind Variable Wind from SSE
Gusts 2.2 mph

Today
High -- | Low -- °F
--% Chance of Precip.
Yesterday
High -- | Low -- °F
Precip. -- in
Pressure 29.89 in
Visibility 5.0 miles
Clouds Few 2000 ft
Heat Index 92 °F
Dew Point 76 °F
Humidity 77%
Rainfall 0.00 in
Snow Depth Not available.
6:37 AM 6:24 PM
Waning Crescent, 21% visible
METAR VTBD 220130Z 10005KT 070V130 8000 FEW020 27/25 Q1012 NOSIG
Pressure 29.89 in
Visibility 5.0 miles
Clouds Few 2000 ft
Heat Index 92 °F
Dew Point 76 °F
Humidity 77%
Rainfall 0.00 in
Snow Depth Not available.
6:37 AM 6:24 PM
Waning Crescent, 21% visible
METAR VTBD 220130Z 10005KT 070V130 8000 FEW020 27/25 Q1012 NOSIG

Get Your Daily Forecast Email!

Thanks for signing up!

Be on the lookout for a verification email in your inbox.

You'll start receiving the daily forecast at 8 AM.

×

10-Day Weather Forecast

No radar image for this location.
×

Almanac

Astronomy

Feb. 22, 2017 Rise Set
Actual Time
Civil Twilight
Nautical Twilight
Astronomical Twilight
Moon
Length of Visible Light
Length of Day
Tomorrow will be .
, % of the Moon is Illuminated

Today's Extremes

Country Highs Country Lows

Community

WunderPhotos

Upload Photos

1,962,540 photos uploaded!

WunderBlog® & News

Nearby

Air Quality

  Air Quality AQ Index Pollutant
Not available.

Snow Depth

Station Depth Elevation

Earthquake Activity

City Distance Mag. Time & Date
Minimum magnitude displayed is 2.5.

Coastal Water Temperatures

Place Temperature

Stations

Nearby Weather Stations

Station Location Temp. Windchill Dew Point Humidity Wind Precip. Elev Updated Type